createdAt,value
2022-11-17T00:03:52.773Z,98368.91
2022-11-17T00:08:49.340Z,98368.25
2022-11-17T00:14:04.506Z,98368.53
2022-11-17T00:19:19.587Z,98343.69
2022-11-17T00:24:16.745Z,98336.69
2022-11-17T00:29:13.135Z,98337.22
2022-11-17T00:34:16.166Z,98335.91
2022-11-17T00:39:14.073Z,98326.75
2022-11-17T00:44:11.029Z,98320.94
2022-11-17T00:49:09.203Z,98309.13
2022-11-17T00:54:06.792Z,98291.38
2022-11-17T00:59:03.601Z,98288.50
2022-11-17T01:04:03.738Z,98276.88
2022-11-17T01:09:02.217Z,98261.28
2022-11-17T01:14:00.526Z,98257.59
2022-11-17T01:18:59.922Z,98259.25
2022-11-17T01:23:58.165Z,98240.00
2022-11-17T01:28:55.580Z,98242.94
2022-11-17T01:33:52.619Z,98228.66
2022-11-17T01:38:49.395Z,98228.00
2022-11-17T01:44:16.284Z,98221.03
2022-11-17T01:49:24.779Z,98217.75
2022-11-17T01:54:23.349Z,98203.81
2022-11-17T01:59:24.846Z,98192.38
2022-11-17T02:04:44.818Z,98176.66
2022-11-17T02:09:42.804Z,98173.31
2022-11-17T02:14:39.914Z,98165.50
2022-11-17T02:19:39.967Z,98157.56
2022-11-17T02:25:04.588Z,98149.78
2022-11-17T02:30:05.236Z,98141.16
2022-11-17T02:35:07.359Z,98123.94
2022-11-17T02:40:10.857Z,98107.53
2022-11-17T02:45:11.224Z,98101.59
2022-11-17T02:50:10.911Z,98109.69
2022-11-17T02:55:10.308Z,98109.03
2022-11-17T03:00:14.038Z,98111.66
2022-11-17T03:05:25.482Z,98118.31
2022-11-17T03:10:56.153Z,98106.69
2022-11-17T03:16:07.833Z,98091.81
2022-11-17T03:21:15.467Z,98078.72
2022-11-17T03:26:15.508Z,98082.84
2022-11-17T03:31:15.185Z,98072.56
2022-11-17T03:36:15.046Z,98051.72
2022-11-17T03:41:14.161Z,98054.69
2022-11-17T03:46:14.878Z,98037.97
2022-11-17T03:51:25.177Z,98041.44
2022-11-17T03:56:45.548Z,98050.38
2022-11-17T04:01:42.268Z,98051.34
2022-11-17T04:06:38.717Z,98039.78
2022-11-17T04:11:53.834Z,98042.25
2022-11-17T04:16:50.213Z,98046.84
2022-11-17T04:21:46.639Z,98041.06
2022-11-17T04:27:02.363Z,98029.13
2022-11-17T04:31:58.741Z,98024.16
2022-11-17T04:36:55.129Z,98042.34
2022-11-17T04:41:54.352Z,98009.22
2022-11-17T04:46:51.344Z,98010.72
2022-11-17T04:51:48.327Z,98013.50
2022-11-17T04:56:46.482Z,98010.50
2022-11-17T05:01:42.989Z,97992.31
2022-11-17T05:06:42.425Z,97970.16
2022-11-17T05:11:57.506Z,97970.47
2022-11-17T05:17:10.078Z,97966.81
2022-11-17T05:22:27.673Z,97966.03
2022-11-17T05:27:24.893Z,97950.16
2022-11-17T05:32:21.613Z,97949.59
2022-11-17T05:37:18.317Z,97943.66
2022-11-17T05:42:14.871Z,97942.69
2022-11-17T05:47:11.304Z,97935.03
2022-11-17T05:52:07.745Z,97914.88
2022-11-17T05:57:14.878Z,97907.09
2022-11-17T06:02:19.038Z,97897.69
2022-11-17T06:07:15.831Z,97893.53
2022-11-17T06:12:12.221Z,97898.00
2022-11-17T06:17:38.031Z,97901.63
2022-11-17T06:22:35.434Z,97902.63
2022-11-17T06:27:33.310Z,97901.44
2022-11-17T06:32:30.468Z,97880.81
2022-11-17T06:37:26.841Z,97906.41
2022-11-17T06:42:43.500Z,97890.56
2022-11-17T06:47:40.084Z,97882.63
2022-11-17T06:52:37.657Z,97868.56
2022-11-17T06:57:34.030Z,97865.44
2022-11-17T07:02:31.811Z,97875.84
2022-11-17T07:07:28.229Z,97881.81
2022-11-17T07:12:24.768Z,97873.53
2022-11-17T07:17:21.153Z,97879.19
2022-11-17T07:22:17.496Z,97880.53
2022-11-17T07:27:13.911Z,97870.94
2022-11-17T07:32:12.021Z,97871.44
2022-11-17T07:37:08.545Z,97864.84
2022-11-17T07:42:05.022Z,97868.97
2022-11-17T07:47:01.769Z,97865.69
2022-11-17T07:51:58.173Z,97855.09
2022-11-17T07:56:54.527Z,97844.81
2022-11-17T08:01:50.896Z,97836.41
2022-11-17T08:06:47.367Z,97833.25
2022-11-17T08:11:44.044Z,97836.59
2022-11-17T08:16:40.943Z,97843.50
2022-11-17T08:21:37.544Z,97848.16
2022-11-17T08:26:34.122Z,97855.13
2022-11-17T08:31:30.679Z,97855.75
2022-11-17T08:36:27.043Z,97867.84
2022-11-17T08:41:23.580Z,97865.69
2022-11-17T08:46:20.032Z,97864.38
2022-11-17T08:51:16.501Z,97864.69
2022-11-17T08:56:13.690Z,97870.31
2022-11-17T09:01:11.785Z,97868.31
2022-11-17T09:06:08.442Z,97875.28
2022-11-17T09:11:12.032Z,97866.66
2022-11-17T09:16:10.653Z,97878.06
2022-11-17T09:21:08.449Z,97885.84
2022-11-17T09:26:11.290Z,97876.09
2022-11-17T09:31:12.876Z,97887.53
2022-11-17T09:36:10.717Z,97890.53
2022-11-17T09:41:16.138Z,97896.97
2022-11-17T09:46:19.979Z,97904.59
2022-11-17T09:51:20.506Z,97903.09
2022-11-17T09:56:19.079Z,97900.13
2022-11-17T10:01:16.746Z,97910.06
2022-11-17T10:06:18.463Z,97902.47
2022-11-17T10:11:31.856Z,97901.78
2022-11-17T10:16:28.300Z,97898.16
2022-11-17T10:21:28.423Z,97912.53
2022-11-17T10:26:28.116Z,97916.69
2022-11-17T10:31:24.493Z,97911.88
2022-11-17T10:36:25.160Z,97924.31
2022-11-17T10:41:32.452Z,97924.94
2022-11-17T10:46:38.226Z,97933.22
2022-11-17T10:51:39.983Z,97931.25
2022-11-17T10:56:42.508Z,97937.22
2022-11-17T11:01:42.420Z,97934.22
2022-11-17T11:06:38.814Z,97940.19
2022-11-17T11:11:43.208Z,97943.47
2022-11-17T11:16:45.045Z,97950.78
2022-11-17T11:21:46.960Z,97947.66
2022-11-17T11:27:07.504Z,97943.50
2022-11-17T11:32:36.970Z,97946.28
2022-11-17T11:37:41.235Z,97948.16
2022-11-17T11:42:43.325Z,97953.25
2022-11-17T11:48:03.951Z,97946.13
2022-11-17T11:53:17.380Z,97949.94
2022-11-17T11:58:24.614Z,97954.03
2022-11-17T12:03:48.796Z,97946.69
2022-11-17T12:08:55.822Z,97951.94
2022-11-17T12:13:54.586Z,97954.06
2022-11-17T12:18:51.069Z,97961.06
2022-11-17T12:23:53.201Z,97958.97
2022-11-17T12:28:49.735Z,97961.38
2022-11-17T12:33:51.813Z,97959.19
2022-11-17T12:38:48.174Z,97957.56
2022-11-17T12:43:44.521Z,97958.28
2022-11-17T12:48:54.045Z,97970.78
2022-11-17T12:54:03.517Z,97972.78
2022-11-17T12:59:37.378Z,97977.59
2022-11-17T13:04:43.773Z,97982.19
2022-11-17T13:09:42.762Z,97989.09
2022-11-17T13:14:59.286Z,97979.09
2022-11-17T13:20:29.588Z,97986.94
2022-11-17T13:25:26.098Z,97987.00
2022-11-17T13:30:24.682Z,97989.50
2022-11-17T13:35:23.896Z,97994.63
2022-11-17T13:40:22.011Z,97984.88
2022-11-17T13:45:18.514Z,97986.16
2022-11-17T13:50:27.214Z,97989.13
2022-11-17T13:55:25.101Z,97984.75
2022-11-17T14:00:22.018Z,97989.53
2022-11-17T14:05:26.047Z,97994.69
2022-11-17T14:10:22.476Z,97990.66
2022-11-17T14:15:24.632Z,97993.16
2022-11-17T14:20:23.735Z,97998.38
2022-11-17T14:25:20.211Z,97999.50
2022-11-17T14:30:16.603Z,97999.75
2022-11-17T14:35:14.641Z,98004.47
2022-11-17T14:40:18.409Z,98015.00
2022-11-17T14:45:16.820Z,98022.19
2022-11-17T14:50:14.405Z,98016.28
2022-11-17T14:55:14.597Z,98011.53
2022-11-17T15:00:18.813Z,98019.06
2022-11-17T15:05:17.471Z,98026.13
2022-11-17T15:10:13.840Z,98034.13
2022-11-17T15:15:10.596Z,98038.31
2022-11-17T15:20:07.591Z,98047.97
2022-11-17T15:25:04.287Z,98056.31
2022-11-17T15:30:00.650Z,98064.59
2022-11-17T15:34:57.031Z,98056.66
2022-11-17T15:39:53.746Z,98065.94
2022-11-17T15:44:50.243Z,98071.09
2022-11-17T15:49:46.801Z,98093.31
2022-11-17T15:54:43.184Z,98092.00
2022-11-17T15:59:39.787Z,98090.03
2022-11-17T16:04:36.365Z,98100.56
2022-11-17T16:09:34.373Z,98109.16
2022-11-17T16:14:30.733Z,98112.81
2022-11-17T16:19:27.143Z,98121.78
2022-11-17T16:24:23.559Z,98129.94
2022-11-17T16:29:19.948Z,98130.78
2022-11-17T16:34:17.807Z,98131.28
2022-11-17T16:39:17.382Z,98136.75
2022-11-17T16:44:18.205Z,98136.94
2022-11-17T16:49:16.723Z,98130.09
2022-11-17T16:54:13.319Z,98137.06
2022-11-17T16:59:11.278Z,98134.41
2022-11-17T17:04:09.895Z,98138.06
2022-11-17T17:09:07.661Z,98146.00
2022-11-17T17:14:06.465Z,98133.94
2022-11-17T17:19:05.507Z,98143.84
2022-11-17T17:24:03.243Z,98147.00
2022-11-17T17:29:01.436Z,98141.69
2022-11-17T17:33:59.906Z,98148.44
2022-11-17T17:38:58.744Z,98155.56
2022-11-17T17:44:04.277Z,98154.22
2022-11-17T17:49:00.776Z,98161.16
2022-11-17T17:54:00.923Z,98175.38
2022-11-17T17:58:57.925Z,98175.34
2022-11-17T18:04:01.177Z,98172.03
2022-11-17T18:08:59.027Z,98173.03
2022-11-17T18:13:55.570Z,98174.31
2022-11-17T18:18:57.247Z,98188.88
2022-11-17T18:23:54.199Z,98187.41
2022-11-17T18:28:55.865Z,98189.16
2022-11-17T18:33:53.820Z,98189.16
2022-11-17T18:38:51.066Z,98192.66
2022-11-17T18:43:48.267Z,98195.16
2022-11-17T18:48:48.005Z,98193.31
2022-11-17T18:53:44.552Z,98198.00
2022-11-17T18:58:42.523Z,98198.31
2022-11-17T19:03:39.643Z,98198.09
2022-11-17T19:08:36.872Z,98201.53
2022-11-17T19:13:35.152Z,98204.66
2022-11-17T19:18:31.580Z,98207.63
2022-11-17T19:23:28.560Z,98207.94
2022-11-17T19:28:24.945Z,98205.94
2022-11-17T19:33:21.521Z,98214.06
2022-11-17T19:38:17.981Z,98218.84
2022-11-17T19:43:17.923Z,98215.22
2022-11-17T19:48:14.373Z,98227.25
2022-11-17T19:53:10.891Z,98229.91
2022-11-17T19:58:07.277Z,98239.97
2022-11-17T20:03:03.785Z,98241.72
2022-11-17T20:08:00.425Z,98241.84
2022-11-17T20:12:57.101Z,98245.38
2022-11-17T20:17:53.733Z,98256.63
2022-11-17T20:22:50.598Z,98261.16
2022-11-17T20:27:46.937Z,98266.97
2022-11-17T20:32:43.317Z,98270.69
2022-11-17T20:37:39.703Z,98268.22
2022-11-17T20:42:35.992Z,98279.66
2022-11-17T20:47:32.397Z,98294.25
2022-11-17T20:52:28.684Z,98294.59
2022-11-17T20:57:25.332Z,98298.75
2022-11-17T21:02:21.633Z,98300.44
2022-11-17T21:07:18.049Z,98314.19
2022-11-17T21:12:14.735Z,98312.66
2022-11-17T21:17:31.230Z,98316.84
2022-11-17T21:22:28.229Z,98330.75
2022-11-17T21:27:24.551Z,98324.63
2022-11-17T21:32:20.848Z,98337.34
2022-11-17T21:37:17.679Z,98330.75
2022-11-17T21:42:13.980Z,98332.31
2022-11-17T21:47:10.305Z,98328.47
2022-11-17T21:52:06.869Z,98339.91
2022-11-17T21:57:03.353Z,98348.03
2022-11-17T22:01:59.912Z,98351.66
2022-11-17T22:06:56.230Z,98353.22
2022-11-17T22:11:53.069Z,98362.44
2022-11-17T22:16:54.947Z,98361.53
2022-11-17T22:21:53.004Z,98379.03
2022-11-17T22:26:51.389Z,98365.94
2022-11-17T22:31:48.797Z,98370.38
2022-11-17T22:36:45.691Z,98372.38
2022-11-17T22:41:42.016Z,98378.78
2022-11-17T22:46:40.620Z,98378.25
2022-11-17T22:51:55.529Z,98377.44
2022-11-17T22:56:51.910Z,98383.28
2022-11-17T23:01:48.307Z,98389.69
2022-11-17T23:06:44.642Z,98397.63
2022-11-17T23:11:42.216Z,98402.75
2022-11-17T23:16:39.723Z,98405.97
2022-11-17T23:21:36.085Z,98405.63
2022-11-17T23:26:33.293Z,98411.91
2022-11-17T23:31:29.692Z,98418.34
2022-11-17T23:36:26.307Z,98427.88
2022-11-17T23:41:22.606Z,98427.75
2022-11-17T23:46:22.331Z,98432.91
2022-11-17T23:51:20.994Z,98434.50
2022-11-17T23:56:20.649Z,98436.75
